KGCY/GCY METAR and TAF weather

Enter ICAO airport designator
Station Type Date Time Source
KGCY METAR 2021/03/03 02:55 UTC NOAA

KGCY 030255Z AUTO 00000KT 10SM CLR 04/M03 A3009 RMK A01


Station Type Date Time Source
KGCY Decoded METAR 2021/03/03 02:55 UTC NOAA

Station name not available
Mar 02, 2021 - 09:55 PM EST / 2021.03.03 0255 UTC
Wind: Calm:0
Visibility: 10 mile(s):0
Sky conditions: clear
Temperature: 39 F (4 C)
Dew Point: 26 F (-3 C)
Relative Humidity: 60%
Pressure (altimeter): 30.09 in. Hg (1018 hPa)
ob: KGCY 030255Z AUTO 00000KT 10SM CLR 04/M03 A3009 RMK A01
cycle: 3

Station Type Date Time Source
KGCY TAF UTC NOAA

Error!

Example: see airport list